Brohman, Michigan
Current Conditions -  °F | °C
As of 5:14 PM on Monday 20 Oct 2014 (Local Time) from KRQB Reporting Station
Overcast Overcast  
Wind Chill: 52°   Ceiling: 4900
Heat Index: 52°   Visibility: 10mi
Dew Point: 48°   Wind: 10mph
Humidity: 88%   Direction: 320°NW
Pressure: 29.82"   Gusts: NA
Location:  43.69°N, 85.82°W
Report Text: KRQB 202114Z AUTO 32009KT 10SM OVC049 11/09 A2982 RMK AO2 T01100090
Loading
Personal Weather Stations






























Interactive Weather Map
Tropical Storm Tracking
New forecast layout! Learn more

10-Day Weather Forecast

Advertisements
Track Severe Weather on mobile